sensor_id;sensor_type;location;lat;lon;timestamp;P1;durP1;ratioP1;P2;durP2;ratioP2
75435;SDS011;64014;53.432;14.534;2023-05-02T00:02:20;17.55;;;8.55;;
75435;SDS011;64014;53.432;14.534;2023-05-02T00:04:46;13.73;;;8.77;;
75435;SDS011;64014;53.432;14.534;2023-05-02T00:07:12;30.27;;;16.80;;
75435;SDS011;64014;53.432;14.534;2023-05-02T00:09:39;19.60;;;11.82;;
75435;SDS011;64014;53.432;14.534;2023-05-02T00:12:05;18.73;;;10.90;;
75435;SDS011;64014;53.432;14.534;2023-05-02T00:14:31;16.60;;;10.82;;
75435;SDS011;64014;53.432;14.534;2023-05-02T00:16:57;15.80;;;6.80;;
75435;SDS011;64014;53.432;14.534;2023-05-02T00:19:23;13.63;;;7.38;;
75435;SDS011;64014;53.432;14.534;2023-05-02T00:21:49;22.38;;;8.88;;
75435;SDS011;64014;53.432;14.534;2023-05-02T00:24:18;19.58;;;12.02;;
75435;SDS011;64014;53.432;14.534;2023-05-02T00:26:45;20.33;;;10.45;;
75435;SDS011;64014;53.432;14.534;2023-05-02T00:29:11;21.00;;;13.32;;
75435;SDS011;64014;53.432;14.534;2023-05-02T00:31:39;17.55;;;11.32;;
75435;SDS011;64014;53.432;14.534;2023-05-02T00:34:05;14.65;;;10.10;;
75435;SDS011;64014;53.432;14.534;2023-05-02T00:36:31;18.48;;;12.63;;
75435;SDS011;64014;53.432;14.534;2023-05-02T00:38:58;20.48;;;13.18;;
75435;SDS011;64014;53.432;14.534;2023-05-02T00:41:24;19.88;;;12.25;;
75435;SDS011;64014;53.432;14.534;2023-05-02T00:43:50;19.75;;;11.65;;
75435;SDS011;64014;53.432;14.534;2023-05-02T00:46:16;17.98;;;10.30;;
75435;SDS011;64014;53.432;14.534;2023-05-02T00:48:42;15.60;;;8.32;;
75435;SDS011;64014;53.432;14.534;2023-05-02T00:51:09;16.35;;;9.32;;
75435;SDS011;64014;53.432;14.534;2023-05-02T00:53:37;15.70;;;8.77;;
75435;SDS011;64014;53.432;14.534;2023-05-02T00:56:03;14.93;;;9.55;;
75435;SDS011;64014;53.432;14.534;2023-05-02T00:58:30;16.55;;;8.82;;
75435;SDS011;64014;53.432;14.534;2023-05-02T01:01:28;16.88;;;9.32;;
75435;SDS011;64014;53.432;14.534;2023-05-02T01:06:23;18.70;;;10.88;;
75435;SDS011;64014;53.432;14.534;2023-05-02T01:11:40;15.90;;;8.27;;
75435;SDS011;64014;53.432;14.534;2023-05-02T01:14:09;18.80;;;9.98;;
75435;SDS011;64014;53.432;14.534;2023-05-02T01:16:39;15.60;;;9.18;;
75435;SDS011;64014;53.432;14.534;2023-05-02T01:19:11;16.08;;;9.60;;
75435;SDS011;64014;53.432;14.534;2023-05-02T01:21:39;17.83;;;9.90;;
75435;SDS011;64014;53.432;14.534;2023-05-02T01:24:06;16.33;;;9.52;;
75435;SDS011;64014;53.432;14.534;2023-05-02T01:26:39;15.00;;;8.38;;
75435;SDS011;64014;53.432;14.534;2023-05-02T01:29:10;14.82;;;9.95;;
75435;SDS011;64014;53.432;14.534;2023-05-02T01:31:43;16.95;;;7.32;;
75435;SDS011;64014;53.432;14.534;2023-05-02T01:34:11;18.58;;;8.00;;
75435;SDS011;64014;53.432;14.534;2023-05-02T01:36:44;15.32;;;8.88;;
75435;SDS011;64014;53.432;14.534;2023-05-02T01:39:12;17.88;;;8.35;;
75435;SDS011;64014;53.432;14.534;2023-05-02T01:41:39;17.63;;;8.73;;
75435;SDS011;64014;53.432;14.534;2023-05-02T01:44:06;15.95;;;8.40;;
75435;SDS011;64014;53.432;14.534;2023-05-02T01:46:33;18.67;;;10.68;;
75435;SDS011;64014;53.432;14.534;2023-05-02T01:49:04;14.82;;;9.40;;
75435;SDS011;64014;53.432;14.534;2023-05-02T01:51:31;16.58;;;9.13;;
75435;SDS011;64014;53.432;14.534;2023-05-02T01:53:59;18.35;;;8.60;;
75435;SDS011;64014;53.432;14.534;2023-05-02T01:56:26;14.15;;;8.43;;
75435;SDS011;64014;53.432;14.534;2023-05-02T01:58:56;13.70;;;8.15;;
75435;SDS011;64014;53.432;14.534;2023-05-02T02:01:22;13.98;;;8.98;;
75435;SDS011;64014;53.432;14.534;2023-05-02T02:03:52;16.60;;;8.38;;
75435;SDS011;64014;53.432;14.534;2023-05-02T02:06:19;15.95;;;8.57;;
75435;SDS011;64014;53.432;14.534;2023-05-02T02:08:46;17.95;;;10.65;;
75435;SDS011;64014;53.432;14.534;2023-05-02T02:11:12;11.63;;;8.38;;
75435;SDS011;64014;53.432;14.534;2023-05-02T02:13:43;16.77;;;9.30;;
75435;SDS011;64014;53.432;14.534;2023-05-02T02:16:12;18.15;;;11.13;;
75435;SDS011;64014;53.432;14.534;2023-05-02T02:18:39;17.88;;;11.30;;
75435;SDS011;64014;53.432;14.534;2023-05-02T02:21:08;17.20;;;10.05;;
75435;SDS011;64014;53.432;14.534;2023-05-02T02:23:34;16.77;;;10.70;;
75435;SDS011;64014;53.432;14.534;2023-05-02T02:26:01;15.70;;;9.95;;
75435;SDS011;64014;53.432;14.534;2023-05-02T02:28:29;16.27;;;10.15;;
75435;SDS011;64014;53.432;14.534;2023-05-02T02:30:55;15.13;;;9.02;;
75435;SDS011;64014;53.432;14.534;2023-05-02T02:33:21;12.63;;;8.27;;
75435;SDS011;64014;53.432;14.534;2023-05-02T02:35:52;13.05;;;8.68;;
75435;SDS011;64014;53.432;14.534;2023-05-02T02:38:41;12.82;;;7.85;;
75435;SDS011;64014;53.432;14.534;2023-05-02T02:41:12;13.25;;;7.45;;
75435;SDS011;64014;53.432;14.534;2023-05-02T02:43:43;12.35;;;7.65;;
75435;SDS011;64014;53.432;14.534;2023-05-02T02:48:42;12.05;;;7.30;;
75435;SDS011;64014;53.432;14.534;2023-05-02T02:51:17;8.93;;;6.07;;
75435;SDS011;64014;53.432;14.534;2023-05-02T02:56:19;7.80;;;5.82;;
75435;SDS011;64014;53.432;14.534;2023-05-02T02:58:56;11.27;;;5.57;;
75435;SDS011;64014;53.432;14.534;2023-05-02T03:01:23;7.45;;;3.72;;
75435;SDS011;64014;53.432;14.534;2023-05-02T03:03:51;8.57;;;4.95;;
75435;SDS011;64014;53.432;14.534;2023-05-02T03:06:18;9.23;;;5.53;;
75435;SDS011;64014;53.432;14.534;2023-05-02T03:08:45;10.55;;;4.82;;
75435;SDS011;64014;53.432;14.534;2023-05-02T03:11:11;6.85;;;4.53;;
75435;SDS011;64014;53.432;14.534;2023-05-02T03:13:37;10.93;;;4.45;;
75435;SDS011;64014;53.432;14.534;2023-05-02T03:18:35;6.60;;;3.80;;
75435;SDS011;64014;53.432;14.534;2023-05-02T03:21:01;7.05;;;3.72;;
75435;SDS011;64014;53.432;14.534;2023-05-02T03:23:27;7.88;;;4.03;;
75435;SDS011;64014;53.432;14.534;2023-05-02T03:25:54;5.88;;;4.40;;
75435;SDS011;64014;53.432;14.534;2023-05-02T03:28:20;6.05;;;3.08;;
75435;SDS011;64014;53.432;14.534;2023-05-02T03:30:46;8.75;;;3.60;;
75435;SDS011;64014;53.432;14.534;2023-05-02T03:33:12;8.60;;;4.10;;
75435;SDS011;64014;53.432;14.534;2023-05-02T03:35:38;6.57;;;2.63;;
75435;SDS011;64014;53.432;14.534;2023-05-02T03:38:06;6.28;;;4.47;;
75435;SDS011;64014;53.432;14.534;2023-05-02T03:40:33;7.43;;;4.00;;
75435;SDS011;64014;53.432;14.534;2023-05-02T03:42:59;6.97;;;4.20;;
75435;SDS011;64014;53.432;14.534;2023-05-02T03:45:25;7.80;;;3.95;;
75435;SDS011;64014;53.432;14.534;2023-05-02T03:47:51;10.07;;;4.47;;
75435;SDS011;64014;53.432;14.534;2023-05-02T03:50:17;6.60;;;4.53;;
75435;SDS011;64014;53.432;14.534;2023-05-02T03:52:43;9.30;;;4.25;;
75435;SDS011;64014;53.432;14.534;2023-05-02T03:55:10;7.97;;;4.45;;
75435;SDS011;64014;53.432;14.534;2023-05-02T03:57:36;5.80;;;4.10;;
75435;SDS011;64014;53.432;14.534;2023-05-02T04:00:02;7.72;;;4.82;;
75435;SDS011;64014;53.432;14.534;2023-05-02T04:02:29;6.32;;;4.38;;
75435;SDS011;64014;53.432;14.534;2023-05-02T04:04:56;9.52;;;4.80;;
75435;SDS011;64014;53.432;14.534;2023-05-02T04:07:22;9.77;;;4.88;;
75435;SDS011;64014;53.432;14.534;2023-05-02T04:09:49;14.50;;;5.93;;
75435;SDS011;64014;53.432;14.534;2023-05-02T04:12:16;9.82;;;4.93;;
75435;SDS011;64014;53.432;14.534;2023-05-02T04:14:42;6.63;;;4.15;;
75435;SDS011;64014;53.432;14.534;2023-05-02T04:17:08;9.32;;;5.13;;
75435;SDS011;64014;53.432;14.534;2023-05-02T04:19:34;8.68;;;4.28;;
75435;SDS011;64014;53.432;14.534;2023-05-02T04:22:01;6.55;;;4.30;;
75435;SDS011;64014;53.432;14.534;2023-05-02T04:24:27;7.20;;;3.95;;
75435;SDS011;64014;53.432;14.534;2023-05-02T04:26:53;9.02;;;4.05;;
75435;SDS011;64014;53.432;14.534;2023-05-02T04:29:20;6.35;;;3.55;;
75435;SDS011;64014;53.432;14.534;2023-05-02T04:31:46;5.25;;;4.15;;
75435;SDS011;64014;53.432;14.534;2023-05-02T04:34:13;6.82;;;3.75;;
75435;SDS011;64014;53.432;14.534;2023-05-02T04:36:39;9.30;;;4.25;;
75435;SDS011;64014;53.432;14.534;2023-05-02T04:39:06;8.32;;;4.07;;
75435;SDS011;64014;53.432;14.534;2023-05-02T04:41:32;5.88;;;4.38;;
75435;SDS011;64014;53.432;14.534;2023-05-02T04:43:58;8.30;;;4.35;;
75435;SDS011;64014;53.432;14.534;2023-05-02T04:46:25;14.18;;;4.72;;
75435;SDS011;64014;53.432;14.534;2023-05-02T04:48:51;8.30;;;4.35;;
75435;SDS011;64014;53.432;14.534;2023-05-02T04:51:17;8.13;;;5.03;;
75435;SDS011;64014;53.432;14.534;2023-05-02T04:53:43;7.25;;;4.60;;
75435;SDS011;64014;53.432;14.534;2023-05-02T04:56:09;7.85;;;5.10;;
75435;SDS011;64014;53.432;14.534;2023-05-02T04:58:36;6.90;;;4.95;;
75435;SDS011;64014;53.432;14.534;2023-05-02T05:01:02;7.40;;;5.07;;
75435;SDS011;64014;53.432;14.534;2023-05-02T05:03:28;10.35;;;4.75;;
75435;SDS011;64014;53.432;14.534;2023-05-02T05:05:54;8.77;;;5.22;;
75435;SDS011;64014;53.432;14.534;2023-05-02T05:08:21;9.68;;;4.78;;
75435;SDS011;64014;53.432;14.534;2023-05-02T05:10:47;7.20;;;5.03;;
75435;SDS011;64014;53.432;14.534;2023-05-02T05:13:13;9.75;;;5.45;;
75435;SDS011;64014;53.432;14.534;2023-05-02T05:15:39;7.50;;;2.80;;
75435;SDS011;64014;53.432;14.534;2023-05-02T05:18:05;8.98;;;5.40;;
75435;SDS011;64014;53.432;14.534;2023-05-02T05:20:33;8.50;;;3.85;;
75435;SDS011;64014;53.432;14.534;2023-05-02T05:22:59;7.80;;;5.10;;
75435;SDS011;64014;53.432;14.534;2023-05-02T05:25:26;11.18;;;5.05;;
75435;SDS011;64014;53.432;14.534;2023-05-02T05:27:53;8.52;;;5.82;;
75435;SDS011;64014;53.432;14.534;2023-05-02T05:30:20;7.47;;;4.03;;
75435;SDS011;64014;53.432;14.534;2023-05-02T05:32:46;10.55;;;4.47;;
75435;SDS011;64014;53.432;14.534;2023-05-02T05:35:12;9.48;;;5.13;;
75435;SDS011;64014;53.432;14.534;2023-05-02T05:37:39;9.27;;;5.82;;
75435;SDS011;64014;53.432;14.534;2023-05-02T05:40:08;9.07;;;5.07;;
75435;SDS011;64014;53.432;14.534;2023-05-02T05:42:34;9.60;;;5.57;;
75435;SDS011;64014;53.432;14.534;2023-05-02T05:45:00;10.18;;;6.57;;
75435;SDS011;64014;53.432;14.534;2023-05-02T05:47:27;9.27;;;4.95;;
75435;SDS011;64014;53.432;14.534;2023-05-02T05:49:53;10.10;;;5.75;;
75435;SDS011;64014;53.432;14.534;2023-05-02T05:52:20;8.00;;;5.28;;
75435;SDS011;64014;53.432;14.534;2023-05-02T05:54:46;10.20;;;4.85;;
75435;SDS011;64014;53.432;14.534;2023-05-02T05:57:12;11.20;;;5.35;;
75435;SDS011;64014;53.432;14.534;2023-05-02T05:59:38;10.50;;;4.88;;
75435;SDS011;64014;53.432;14.534;2023-05-02T06:02:05;11.07;;;5.70;;
75435;SDS011;64014;53.432;14.534;2023-05-02T06:04:31;9.82;;;5.38;;
75435;SDS011;64014;53.432;14.534;2023-05-02T06:06:57;11.55;;;5.80;;
75435;SDS011;64014;53.432;14.534;2023-05-02T06:09:23;10.80;;;6.60;;
75435;SDS011;64014;53.432;14.534;2023-05-02T06:11:50;11.68;;;6.22;;
75435;SDS011;64014;53.432;14.534;2023-05-02T06:14:16;10.45;;;4.68;;
75435;SDS011;64014;53.432;14.534;2023-05-02T06:16:42;10.65;;;5.85;;
75435;SDS011;64014;53.432;14.534;2023-05-02T06:19:09;13.25;;;6.57;;
75435;SDS011;64014;53.432;14.534;2023-05-02T06:21:35;11.00;;;6.10;;
75435;SDS011;64014;53.432;14.534;2023-05-02T06:24:02;11.35;;;6.18;;
75435;SDS011;64014;53.432;14.534;2023-05-02T06:26:28;11.65;;;5.18;;
75435;SDS011;64014;53.432;14.534;2023-05-02T06:28:54;10.35;;;6.60;;
75435;SDS011;64014;53.432;14.534;2023-05-02T06:31:21;9.82;;;4.60;;
75435;SDS011;64014;53.432;14.534;2023-05-02T06:33:47;12.18;;;5.85;;
75435;SDS011;64014;53.432;14.534;2023-05-02T06:36:13;10.75;;;4.22;;
75435;SDS011;64014;53.432;14.534;2023-05-02T06:38:39;11.82;;;5.80;;
75435;SDS011;64014;53.432;14.534;2023-05-02T06:41:06;9.57;;;4.43;;
75435;SDS011;64014;53.432;14.534;2023-05-02T06:43:38;10.25;;;5.38;;
75435;SDS011;64014;53.432;14.534;2023-05-02T06:46:04;11.88;;;5.50;;
75435;SDS011;64014;53.432;14.534;2023-05-02T06:48:30;9.70;;;4.75;;
75435;SDS011;64014;53.432;14.534;2023-05-02T06:50:56;10.43;;;5.97;;
75435;SDS011;64014;53.432;14.534;2023-05-02T06:53:22;9.25;;;5.00;;
75435;SDS011;64014;53.432;14.534;2023-05-02T06:55:48;11.20;;;4.38;;
75435;SDS011;64014;53.432;14.534;2023-05-02T06:58:15;10.32;;;6.78;;
75435;SDS011;64014;53.432;14.534;2023-05-02T07:00:41;10.07;;;5.03;;
75435;SDS011;64014;53.432;14.534;2023-05-02T07:03:07;13.13;;;5.82;;
75435;SDS011;64014;53.432;14.534;2023-05-02T07:05:35;9.45;;;5.22;;
75435;SDS011;64014;53.432;14.534;2023-05-02T07:08:01;8.93;;;4.45;;
75435;SDS011;64014;53.432;14.534;2023-05-02T07:10:27;8.07;;;4.18;;
75435;SDS011;64014;53.432;14.534;2023-05-02T07:12:53;10.15;;;5.75;;
75435;SDS011;64014;53.432;14.534;2023-05-02T07:15:20;11.18;;;6.72;;
75435;SDS011;64014;53.432;14.534;2023-05-02T07:17:46;9.77;;;7.38;;
75435;SDS011;64014;53.432;14.534;2023-05-02T07:20:13;8.02;;;4.97;;
75435;SDS011;64014;53.432;14.534;2023-05-02T07:22:40;10.02;;;4.57;;
75435;SDS011;64014;53.432;14.534;2023-05-02T07:25:07;8.05;;;4.70;;
75435;SDS011;64014;53.432;14.534;2023-05-02T07:27:33;6.88;;;3.75;;
75435;SDS011;64014;53.432;14.534;2023-05-02T07:29:59;14.50;;;8.52;;
75435;SDS011;64014;53.432;14.534;2023-05-02T07:32:26;10.07;;;5.28;;
75435;SDS011;64014;53.432;14.534;2023-05-02T07:34:52;11.15;;;5.38;;
75435;SDS011;64014;53.432;14.534;2023-05-02T07:37:19;9.70;;;3.70;;
75435;SDS011;64014;53.432;14.534;2023-05-02T07:39:45;9.90;;;4.20;;
75435;SDS011;64014;53.432;14.534;2023-05-02T07:42:11;7.95;;;3.63;;
75435;SDS011;64014;53.432;14.534;2023-05-02T07:44:37;7.63;;;3.58;;
75435;SDS011;64014;53.432;14.534;2023-05-02T07:47:03;8.23;;;3.80;;
75435;SDS011;64014;53.432;14.534;2023-05-02T07:49:30;9.38;;;4.68;;
75435;SDS011;64014;53.432;14.534;2023-05-02T07:51:56;7.13;;;4.78;;
75435;SDS011;64014;53.432;14.534;2023-05-02T07:54:22;7.93;;;3.95;;
75435;SDS011;64014;53.432;14.534;2023-05-02T07:56:50;7.43;;;4.30;;
75435;SDS011;64014;53.432;14.534;2023-05-02T07:59:16;9.70;;;3.65;;
75435;SDS011;64014;53.432;14.534;2023-05-02T08:01:42;10.95;;;6.13;;
75435;SDS011;64014;53.432;14.534;2023-05-02T08:04:09;9.18;;;4.97;;
75435;SDS011;64014;53.432;14.534;2023-05-02T08:06:35;7.93;;;4.07;;
75435;SDS011;64014;53.432;14.534;2023-05-02T08:09:01;7.45;;;3.13;;
75435;SDS011;64014;53.432;14.534;2023-05-02T08:11:28;5.72;;;3.90;;
75435;SDS011;64014;53.432;14.534;2023-05-02T08:13:54;5.93;;;2.28;;
75435;SDS011;64014;53.432;14.534;2023-05-02T08:16:20;6.40;;;2.40;;
75435;SDS011;64014;53.432;14.534;2023-05-02T08:18:46;7.50;;;4.05;;
75435;SDS011;64014;53.432;14.534;2023-05-02T08:21:13;7.35;;;3.75;;
75435;SDS011;64014;53.432;14.534;2023-05-02T08:23:39;6.80;;;2.65;;
75435;SDS011;64014;53.432;14.534;2023-05-02T08:26:06;7.88;;;3.88;;
75435;SDS011;64014;53.432;14.534;2023-05-02T08:28:32;7.88;;;3.60;;
75435;SDS011;64014;53.432;14.534;2023-05-02T08:30:58;7.63;;;4.22;;
75435;SDS011;64014;53.432;14.534;2023-05-02T08:33:24;7.50;;;5.13;;
75435;SDS011;64014;53.432;14.534;2023-05-02T08:35:51;7.25;;;3.25;;
75435;SDS011;64014;53.432;14.534;2023-05-02T08:38:17;6.97;;;3.60;;
75435;SDS011;64014;53.432;14.534;2023-05-02T08:40:43;8.65;;;4.72;;
75435;SDS011;64014;53.432;14.534;2023-05-02T08:43:10;7.80;;;4.90;;
75435;SDS011;64014;53.432;14.534;2023-05-02T08:45:43;7.93;;;5.03;;
75435;SDS011;64014;53.432;14.534;2023-05-02T08:48:10;6.72;;;4.40;;
75435;SDS011;64014;53.432;14.534;2023-05-02T08:50:37;3.85;;;1.83;;
75435;SDS011;64014;53.432;14.534;2023-05-02T08:53:05;4.43;;;2.05;;
75435;SDS011;64014;53.432;14.534;2023-05-02T08:55:33;3.72;;;2.83;;
75435;SDS011;64014;53.432;14.534;2023-05-02T08:57:59;3.35;;;1.48;;
75435;SDS011;64014;53.432;14.534;2023-05-02T09:00:26;5.10;;;1.83;;
75435;SDS011;64014;53.432;14.534;2023-05-02T09:03:05;3.83;;;1.13;;
75435;SDS011;64014;53.432;14.534;2023-05-02T09:05:32;4.45;;;2.30;;
75435;SDS011;64014;53.432;14.534;2023-05-02T09:08:03;4.00;;;1.88;;
75435;SDS011;64014;53.432;14.534;2023-05-02T09:10:29;4.32;;;1.63;;
75435;SDS011;64014;53.432;14.534;2023-05-02T09:12:55;4.40;;;2.47;;
75435;SDS011;64014;53.432;14.534;2023-05-02T09:15:21;4.75;;;3.22;;
75435;SDS011;64014;53.432;14.534;2023-05-02T09:17:48;4.50;;;1.30;;
75435;SDS011;64014;53.432;14.534;2023-05-02T09:20:15;4.22;;;1.45;;
75435;SDS011;64014;53.432;14.534;2023-05-02T09:22:51;5.97;;;3.55;;
75435;SDS011;64014;53.432;14.534;2023-05-02T09:25:18;4.25;;;1.17;;
75435;SDS011;64014;53.432;14.534;2023-05-02T09:27:49;3.85;;;1.27;;
75435;SDS011;64014;53.432;14.534;2023-05-02T09:30:20;3.67;;;1.10;;
75435;SDS011;64014;53.432;14.534;2023-05-02T09:32:47;5.30;;;4.22;;
75435;SDS011;64014;53.432;14.534;2023-05-02T09:37:48;4.70;;;2.88;;
75435;SDS011;64014;53.432;14.534;2023-05-02T09:40:14;6.95;;;1.63;;
75435;SDS011;64014;53.432;14.534;2023-05-02T09:42:41;4.43;;;1.42;;
75435;SDS011;64014;53.432;14.534;2023-05-02T09:45:07;6.47;;;3.08;;
75435;SDS011;64014;53.432;14.534;2023-05-02T09:47:34;4.93;;;1.15;;
75435;SDS011;64014;53.432;14.534;2023-05-02T09:50:00;6.90;;;1.92;;
75435;SDS011;64014;53.432;14.534;2023-05-02T09:52:28;7.63;;;1.55;;
75435;SDS011;64014;53.432;14.534;2023-05-02T09:54:54;5.93;;;1.95;;
75435;SDS011;64014;53.432;14.534;2023-05-02T09:57:20;7.53;;;1.58;;
75435;SDS011;64014;53.432;14.534;2023-05-02T09:59:57;7.95;;;1.70;;
75435;SDS011;64014;53.432;14.534;2023-05-02T10:02:24;7.43;;;1.55;;
75435;SDS011;64014;53.432;14.534;2023-05-02T10:04:50;4.75;;;1.35;;
75435;SDS011;64014;53.432;14.534;2023-05-02T10:07:18;4.63;;;1.35;;
75435;SDS011;64014;53.432;14.534;2023-05-02T10:09:45;4.80;;;1.13;;
75435;SDS011;64014;53.432;14.534;2023-05-02T10:12:15;7.57;;;2.40;;
75435;SDS011;64014;53.432;14.534;2023-05-02T10:14:49;8.77;;;1.77;;
75435;SDS011;64014;53.432;14.534;2023-05-02T10:17:21;5.00;;;1.90;;
75435;SDS011;64014;53.432;14.534;2023-05-02T10:19:53;9.32;;;1.98;;
75435;SDS011;64014;53.432;14.534;2023-05-02T10:22:21;10.55;;;2.22;;
75435;SDS011;64014;53.432;14.534;2023-05-02T10:24:49;6.43;;;1.80;;
75435;SDS011;64014;53.432;14.534;2023-05-02T10:27:15;6.32;;;1.65;;
75435;SDS011;64014;53.432;14.534;2023-05-02T10:29:41;7.57;;;1.48;;
75435;SDS011;64014;53.432;14.534;2023-05-02T10:32:07;5.95;;;1.48;;
75435;SDS011;64014;53.432;14.534;2023-05-02T10:34:34;6.25;;;2.83;;
75435;SDS011;64014;53.432;14.534;2023-05-02T10:37:01;6.28;;;2.75;;
75435;SDS011;64014;53.432;14.534;2023-05-02T10:39:27;5.88;;;2.80;;
75435;SDS011;64014;53.432;14.534;2023-05-02T10:41:54;5.97;;;1.38;;
75435;SDS011;64014;53.432;14.534;2023-05-02T10:44:55;9.48;;;1.60;;
75435;SDS011;64014;53.432;14.534;2023-05-02T10:47:24;10.95;;;2.70;;
75435;SDS011;64014;53.432;14.534;2023-05-02T10:49:58;6.57;;;1.98;;
75435;SDS011;64014;53.432;14.534;2023-05-02T10:52:37;6.40;;;1.50;;
75435;SDS011;64014;53.432;14.534;2023-05-02T11:00:25;7.80;;;4.25;;
75435;SDS011;64014;53.432;14.534;2023-05-02T11:02:51;19.58;;;12.55;;
75435;SDS011;64014;53.432;14.534;2023-05-02T11:05:18;24.48;;;12.52;;
75435;SDS011;64014;53.432;14.534;2023-05-02T11:07:44;9.90;;;5.10;;
75435;SDS011;64014;53.432;14.534;2023-05-02T11:12:47;74.80;;;33.53;;
75435;SDS011;64014;53.432;14.534;2023-05-02T11:15:14;12.07;;;5.60;;
75435;SDS011;64014;53.432;14.534;2023-05-02T11:20:25;11.05;;;3.35;;
75435;SDS011;64014;53.432;14.534;2023-05-02T11:22:53;10.07;;;2.40;;
75435;SDS011;64014;53.432;14.534;2023-05-02T11:30:59;8.60;;;4.65;;
75435;SDS011;64014;53.432;14.534;2023-05-02T11:33:26;25.95;;;17.10;;
75435;SDS011;64014;53.432;14.534;2023-05-02T11:35:53;9.40;;;4.07;;
75435;SDS011;64014;53.432;14.534;2023-05-02T11:38:21;24.05;;;15.13;;
75435;SDS011;64014;53.432;14.534;2023-05-02T11:40:53;18.80;;;13.07;;
75435;SDS011;64014;53.432;14.534;2023-05-02T11:43:20;14.95;;;8.70;;
75435;SDS011;64014;53.432;14.534;2023-05-02T11:45:46;13.57;;;7.82;;
75435;SDS011;64014;53.432;14.534;2023-05-02T11:48:15;9.68;;;7.82;;
75435;SDS011;64014;53.432;14.534;2023-05-02T11:50:46;8.75;;;2.15;;
75435;SDS011;64014;53.432;14.534;2023-05-02T11:53:13;12.13;;;3.88;;
75435;SDS011;64014;53.432;14.534;2023-05-02T11:55:46;7.53;;;3.17;;
75435;SDS011;64014;53.432;14.534;2023-05-02T11:58:12;10.98;;;4.15;;
75435;SDS011;64014;53.432;14.534;2023-05-02T12:00:39;8.73;;;3.38;;
75435;SDS011;64014;53.432;14.534;2023-05-02T12:03:05;8.85;;;3.45;;
75435;SDS011;64014;53.432;14.534;2023-05-02T12:05:32;7.53;;;1.77;;
75435;SDS011;64014;53.432;14.534;2023-05-02T12:07:58;7.72;;;1.35;;
75435;SDS011;64014;53.432;14.534;2023-05-02T12:10:35;6.15;;;2.75;;
75435;SDS011;64014;53.432;14.534;2023-05-02T12:13:05;6.50;;;1.30;;
75435;SDS011;64014;53.432;14.534;2023-05-02T12:15:31;4.50;;;2.22;;
75435;SDS011;64014;53.432;14.534;2023-05-02T12:17:57;7.97;;;1.40;;
75435;SDS011;64014;53.432;14.534;2023-05-02T12:20:24;5.88;;;1.05;;
75435;SDS011;64014;53.432;14.534;2023-05-02T12:22:50;7.63;;;1.00;;
75435;SDS011;64014;53.432;14.534;2023-05-02T12:25:17;4.53;;;0.95;;
75435;SDS011;64014;53.432;14.534;2023-05-02T12:27:57;8.00;;;1.15;;
75435;SDS011;64014;53.432;14.534;2023-05-02T12:30:26;5.32;;;1.85;;
75435;SDS011;64014;53.432;14.534;2023-05-02T12:32:56;8.20;;;1.20;;
75435;SDS011;64014;53.432;14.534;2023-05-02T12:35:26;5.80;;;0.98;;
75435;SDS011;64014;53.432;14.534;2023-05-02T12:37:52;5.25;;;1.45;;
75435;SDS011;64014;53.432;14.534;2023-05-02T12:40:19;6.43;;;0.98;;
75435;SDS011;64014;53.432;14.534;2023-05-02T12:43:01;6.35;;;1.25;;
75435;SDS011;64014;53.432;14.534;2023-05-02T12:45:29;7.63;;;1.08;;
75435;SDS011;64014;53.432;14.534;2023-05-02T12:48:02;6.40;;;1.20;;
75435;SDS011;64014;53.432;14.534;2023-05-02T12:50:34;8.85;;;2.05;;
75435;SDS011;64014;53.432;14.534;2023-05-02T12:53:01;7.15;;;1.80;;
75435;SDS011;64014;53.432;14.534;2023-05-02T12:55:28;3.20;;;1.05;;
75435;SDS011;64014;53.432;14.534;2023-05-02T12:58:14;5.20;;;1.33;;
75435;SDS011;64014;53.432;14.534;2023-05-02T13:00:41;6.60;;;1.75;;
75435;SDS011;64014;53.432;14.534;2023-05-02T13:03:08;7.93;;;1.52;;
75435;SDS011;64014;53.432;14.534;2023-05-02T13:05:35;7.43;;;1.25;;
75435;SDS011;64014;53.432;14.534;2023-05-02T13:08:01;6.82;;;2.10;;
75435;SDS011;64014;53.432;14.534;2023-05-02T13:10:28;4.30;;;1.50;;
75435;SDS011;64014;53.432;14.534;2023-05-02T13:12:54;5.85;;;1.58;;
75435;SDS011;64014;53.432;14.534;2023-05-02T13:15:20;5.15;;;1.30;;
75435;SDS011;64014;53.432;14.534;2023-05-02T13:17:48;8.32;;;0.75;;
75435;SDS011;64014;53.432;14.534;2023-05-02T13:20:14;7.43;;;0.95;;
75435;SDS011;64014;53.432;14.534;2023-05-02T13:22:41;6.85;;;2.08;;
75435;SDS011;64014;53.432;14.534;2023-05-02T13:25:07;5.85;;;2.95;;
75435;SDS011;64014;53.432;14.534;2023-05-02T13:27:33;7.80;;;1.33;;
75435;SDS011;64014;53.432;14.534;2023-05-02T13:29:59;7.28;;;2.50;;
75435;SDS011;64014;53.432;14.534;2023-05-02T13:32:26;5.32;;;1.10;;
75435;SDS011;64014;53.432;14.534;2023-05-02T13:34:53;4.45;;;1.42;;
75435;SDS011;64014;53.432;14.534;2023-05-02T13:37:19;7.15;;;1.38;;
75435;SDS011;64014;53.432;14.534;2023-05-02T13:39:45;7.43;;;3.13;;
75435;SDS011;64014;53.432;14.534;2023-05-02T13:42:11;8.13;;;2.40;;
75435;SDS011;64014;53.432;14.534;2023-05-02T13:44:38;7.32;;;1.58;;
75435;SDS011;64014;53.432;14.534;2023-05-02T13:47:04;3.40;;;0.80;;
75435;SDS011;64014;53.432;14.534;2023-05-02T13:49:30;6.32;;;1.85;;
75435;SDS011;64014;53.432;14.534;2023-05-02T13:51:56;4.72;;;1.38;;
75435;SDS011;64014;53.432;14.534;2023-05-02T13:54:22;5.97;;;1.55;;
75435;SDS011;64014;53.432;14.534;2023-05-02T13:56:49;4.93;;;1.27;;
75435;SDS011;64014;53.432;14.534;2023-05-02T13:59:15;6.20;;;1.20;;
75435;SDS011;64014;53.432;14.534;2023-05-02T14:01:41;6.75;;;2.38;;
75435;SDS011;64014;53.432;14.534;2023-05-02T14:04:07;5.35;;;2.05;;
75435;SDS011;64014;53.432;14.534;2023-05-02T14:06:33;6.68;;;1.10;;
75435;SDS011;64014;53.432;14.534;2023-05-02T14:09:00;5.70;;;2.92;;
75435;SDS011;64014;53.432;14.534;2023-05-02T14:11:26;18.88;;;7.90;;
75435;SDS011;64014;53.432;14.534;2023-05-02T14:13:52;5.13;;;1.40;;
75435;SDS011;64014;53.432;14.534;2023-05-02T14:16:21;7.57;;;1.30;;
75435;SDS011;64014;53.432;14.534;2023-05-02T14:18:47;6.70;;;1.52;;
75435;SDS011;64014;53.432;14.534;2023-05-02T14:21:14;7.88;;;1.35;;
75435;SDS011;64014;53.432;14.534;2023-05-02T14:23:40;5.53;;;1.83;;
75435;SDS011;64014;53.432;14.534;2023-05-02T14:26:07;4.22;;;1.95;;
75435;SDS011;64014;53.432;14.534;2023-05-02T14:28:33;5.75;;;2.25;;
75435;SDS011;64014;53.432;14.534;2023-05-02T14:30:59;7.25;;;2.92;;
75435;SDS011;64014;53.432;14.534;2023-05-02T14:33:25;7.85;;;3.65;;
75435;SDS011;64014;53.432;14.534;2023-05-02T14:35:51;5.35;;;3.13;;
75435;SDS011;64014;53.432;14.534;2023-05-02T14:38:18;4.20;;;2.42;;
75435;SDS011;64014;53.432;14.534;2023-05-02T14:40:44;9.45;;;2.60;;
75435;SDS011;64014;53.432;14.534;2023-05-02T14:43:10;6.70;;;3.05;;
75435;SDS011;64014;53.432;14.534;2023-05-02T14:45:36;4.88;;;2.75;;
75435;SDS011;64014;53.432;14.534;2023-05-02T14:48:03;5.28;;;2.42;;
75435;SDS011;64014;53.432;14.534;2023-05-02T14:50:29;6.88;;;2.80;;
75435;SDS011;64014;53.432;14.534;2023-05-02T14:52:56;6.03;;;4.10;;
75435;SDS011;64014;53.432;14.534;2023-05-02T14:55:22;8.25;;;2.67;;
75435;SDS011;64014;53.432;14.534;2023-05-02T14:57:48;5.32;;;1.10;;
75435;SDS011;64014;53.432;14.534;2023-05-02T15:00:14;6.55;;;1.60;;
75435;SDS011;64014;53.432;14.534;2023-05-02T15:02:40;5.90;;;1.15;;